Time;durP1;ratioP1;P1;durP2;ratioP2;P2;SDS_P1;SDS_P2;PMS_P1;PMS_P2;Temp;Humidity;BMP_temperature;BMP_pressure;BME280_temperature;BME280_humidity;BME280_pressure;Samples;Min_cycle;Max_cycle;Signal;HPM_P1;HPM_P2
2022/02/03 00:01:51;;;;;;;9.95;1.88;;;23.90;99.90;;;;;;5074375;28;20024;-75
2022/02/03 00:04:29;;;;;;;8.52;2.22;;;23.90;99.90;;;;;;5072915;28;20036;-74
2022/02/03 00:07:02;;;;;;;6.57;1.75;;;24.20;99.90;;;;;;5074256;28;20029;-75
2022/02/03 00:10:00;;;;;;;14.75;2.45;;;23.90;99.90;;;;;;5074298;28;20404;-75
2022/02/03 00:24:01;;;;;;;11.07;2.30;;;;;;;;;;5074089;28;20113;-75
2022/02/03 00:26:11;;;;;;;11.45;2.38;;;;;;;;;;5073690;28;20025;-75
2022/02/03 00:28:45;;;;;;;11.90;2.45;;;;;;;;;;5073784;28;20024;-76
2022/02/03 00:31:29;;;;;;;7.65;1.95;;;;;;;;;;5072530;28;20036;-76
2022/02/03 00:34:08;;;;;;;10.98;2.60;;;;;;;;;;5073774;28;20047;-75
2022/02/03 00:37:04;;;;;;;10.73;2.58;;;;;;;;;;5072425;28;20024;-76
2022/02/03 00:50:33;;;;;;;9.98;2.28;;;;;;;;;;5074428;28;20036;-77
2022/02/03 00:53:06;;;;;;;7.78;2.05;;;;;;;;;;5073624;28;20032;-75
2022/02/03 00:55:37;;;;;;;8.50;2.08;;;;;;;;;;5073437;28;20039;-75
2022/02/03 00:58:04;;;;;;;10.60;1.88;;;;;;;;;;5073848;28;20098;-76
2022/02/03 01:00:34;;;;;;;6.88;1.85;;;;;;;;;;5072382;28;20027;-76
2022/02/03 01:03:07;;;;;;;9.60;2.00;;;;;;;;;;5073435;28;20028;-76
2022/02/03 01:05:37;;;;;;;7.72;1.90;;;;;;;;;;5073019;28;20555;-75
2022/02/03 01:08:15;;;;;;;12.75;2.78;;;;;;;;;;5073103;28;20401;-75
2022/02/03 01:10:50;;;;;;;7.28;1.77;;;;;;;;;;5073181;28;20386;-74
2022/02/03 01:13:37;;;;;;;7.43;2.05;;;;;;;;;;5073020;28;20078;-75
2022/02/03 01:16:16;;;;;;;12.60;2.30;;;;;;;;;;5072967;28;20023;-75
2022/02/03 01:19:12;;;;;;;9.32;1.77;;;;;;;;;;5072957;28;20048;-76
2022/02/03 01:33:31;;;;;;;10.75;2.45;;;;;;;;;;5071612;28;20067;-74
2022/02/03 01:43:57;;;;;;;9.23;1.95;;;;;;;;;;5073020;28;20488;-75
2022/02/03 01:46:47;;;;;;;6.63;1.70;;;;;;;;;;5071622;28;20283;-74
2022/02/03 01:49:28;;;;;;;7.57;1.83;;;;;;;;;;5072880;28;20024;-75
2022/02/03 01:51:57;;;;;;;12.20;1.98;;;;;;;;;;5072812;28;20491;-75
2022/02/03 01:54:30;;;;;;;7.45;2.08;;;;;;;;;;5072717;28;20024;-74
2022/02/03 01:57:08;;;;;;;10.50;2.00;;;;;;;;;;5072700;28;20350;-75
2022/02/03 01:59:37;;;;;;;9.25;2.33;;;;;;;;;;5072464;28;20481;-75
2022/02/03 02:02:06;;;;;;;11.35;2.08;;;;;;;;;;5074620;28;20020;-73
2022/02/03 02:04:55;;;;;;;10.13;2.60;;;;;;;;;;5073055;28;20037;-74
2022/02/03 02:07:28;;;;;;;7.70;1.80;;;;;;;;;;5072646;28;20029;-75
2022/02/03 02:12:43;;;;;;;9.52;2.03;;;;;;;;;;5072672;28;20044;-75
2022/02/03 02:40:08;;;;;;;11.90;2.67;;;;;;;;;;5070745;28;20366;-75
2022/02/03 02:42:52;;;;;;;13.70;2.70;;;;;;;;;;5076111;28;20051;-75
2022/02/03 02:45:24;;;;;;;10.20;2.00;;;;;;;;;;5074699;28;20024;-76
2022/02/03 02:47:51;;;;;;;11.07;2.20;;;;;;;;;;5074711;28;20035;-76
2022/02/03 02:50:28;;;;;;;8.10;1.90;;;;;;;;;;5075473;28;20023;-75
2022/02/03 02:53:19;;;;;;;7.30;1.95;;;;;;;;;;5075773;28;20017;-74
2022/02/03 03:31:12;;;;;;;8.32;1.80;;;;;;;;;;5075033;28;20071;-75
2022/02/03 03:33:54;;;;;;;4.65;1.13;;;;;;;;;;5074908;28;20021;-76
2022/02/03 03:36:22;;;;;;;8.00;1.95;;;;;;;;;;5074824;28;20401;-77
2022/02/03 03:38:50;;;;;;;7.28;1.60;;;;;;;;;;5074886;28;20488;-77
2022/02/03 03:41:21;;;;;;;7.53;1.88;;;;;;;;;;5074756;28;20020;-76
2022/02/03 03:44:01;;;;;;;7.97;1.65;;;;;;;;;;5074952;28;20032;-75
2022/02/03 03:46:33;;;;;;;11.32;1.85;;;;;;;;;;5074684;28;20118;-75
2022/02/03 03:49:03;;;;;;;8.38;1.60;;;;;;;;;;5073832;28;20020;-75
2022/02/03 03:51:49;;;;;;;9.77;2.70;;;;;;;;;;5074573;28;20448;-75
2022/02/03 03:55:07;;;;;;;6.05;1.85;;;;;;;;;;5074795;28;20039;-75
2022/02/03 03:58:03;;;;;;;10.93;2.05;;;;;;;;;;5071223;28;20123;-75
2022/02/03 04:01:02;;;;;;;7.90;2.22;;;;;;;;;;5071177;28;20037;-76
2022/02/03 04:33:08;;;;;;;8.73;2.10;;;;;;;;;;5074069;28;20036;-76
2022/02/03 05:01:47;;;;;;;7.43;1.70;;;;;;;;;;5072957;28;20280;-78
2022/02/03 05:04:26;;;;;;;10.80;2.03;;;;;;;;;;5073042;28;20032;-78
2022/02/03 05:07:26;;;;;;;;;;;;;;;;;;;;;
2022/02/03 05:09:58;;;;;;;7.03;1.38;;;;;;;;;;5073377;28;20017;-76
2022/02/03 05:12:49;;;;;;;11.10;1.80;;;;;;;;;;5073384;28;20028;-76
2022/02/03 05:32:10;;;;;;;10.30;2.00;;;;;;;;;;5073211;28;20112;-75
2022/02/03 05:45:00;;;;;;;8.95;1.60;;;;;;;;;;5072596;28;20404;-76
2022/02/03 05:48:02;;;;;;;9.85;1.55;;;;;;;;;;5070872;28;20037;-74
2022/02/03 05:51:10;;;;;;;7.28;1.30;;;;;;;;;;5072213;28;20039;-75
2022/02/03 06:12:20;;;;;;;7.70;1.35;;;;;;;;;;5072510;28;20413;-75
2022/02/03 06:15:11;;;;;;;9.57;1.58;;;;;;;;;;5076018;28;20031;-76
2022/02/03 06:17:37;;;;;;;9.50;1.42;;;;;;;;;;5076153;28;20484;-77
2022/02/03 06:22:54;;;;;;;9.90;1.98;;;;;;;;;;5076202;28;20117;-75
2022/02/03 06:28:07;;;;;;;5.60;1.50;;;;;;;;;;5075887;28;20393;-77
2022/02/03 06:30:34;;;;;;;12.15;1.85;;;;;;;;;;5075911;28;20077;-75
2022/02/03 06:33:01;;;;;;;9.60;1.60;;;;;;;;;;5075890;28;20461;-75
2022/02/03 06:35:28;;;;;;;6.82;1.60;;;;;;;;;;5075886;28;20095;-76
2022/02/03 06:37:56;;;;;;;8.70;1.60;;;;;;;;;;5075893;28;20025;-75
2022/02/03 06:40:23;;;;;;;6.90;1.38;;;;;;;;;;5074646;28;20390;-76
2022/02/03 06:42:55;;;;;;;5.55;1.13;;;;;;;;;;5074396;28;20033;-75
2022/02/03 06:45:48;;;;;;;9.68;1.73;;;;;;;;;;5074675;28;20521;-76
2022/02/03 06:48:15;;;;;;;6.20;1.38;;;;;;;;;;5074949;28;20039;-75
2022/02/03 06:50:51;;;;;;;7.22;1.15;;;;;;;;;;5074424;28;20021;-76
2022/02/03 06:53:25;;;;;;;8.82;1.40;;;;;;;;;;5075675;28;20363;-76
2022/02/03 06:56:01;;;;;;;7.10;1.52;;;;;;;;;;5074326;28;20016;-76
2022/02/03 06:58:38;;;;;;;5.03;1.52;;;;;;;;;;5074207;28;20111;-76
2022/02/03 07:04:22;;;;;;;10.30;1.92;;;;;;;;;;5051828;28;20033;-76
2022/02/03 07:06:49;;;;;;;6.10;1.55;;;;;;;;;;5034968;28;20052;-77
2022/02/03 07:09:16;;;;;;;9.48;1.95;;;;;;;;;;5035407;28;20030;-76
2022/02/03 07:11:44;;;;;;;11.38;2.45;;;;;;;;;;5034066;28;20045;-76
2022/02/03 07:14:12;;;;;;;11.75;2.30;;;;;;;;;;5035311;28;20043;-75
2022/02/03 07:16:50;;;;;;;10.23;2.20;;;;;;;;;;5035359;28;20024;-76
2022/02/03 07:19:17;;;;;;;7.28;1.60;;;;;;;;;;5035233;28;20025;-76
2022/02/03 07:21:47;;;;;;;9.18;1.50;;;;;;;;;;5035233;28;20021;-75
2022/02/03 07:24:14;;;;;;;6.68;1.42;;;;;;;;;;5032679;28;20049;-75
2022/02/03 07:26:41;;;;;;;7.97;1.60;;;;;;;;;;5035169;28;20030;-76
2022/02/03 07:29:08;;;;;;;10.15;2.10;;;;;;;;;;5033653;28;20033;-75
2022/02/03 07:31:35;;;;;;;9.70;2.03;;;;;;;;;;5034926;28;20040;-75
2022/02/03 07:34:11;;;;;;;10.77;2.00;;;;;;;;;;5034870;28;20100;-75
2022/02/03 07:36:38;;;;;;;13.82;2.50;;;;;;;;;;5033732;28;20029;-75
2022/02/03 07:39:07;;;;;;;11.05;2.55;;;;;;;;;;5034732;28;20044;-76
2022/02/03 07:41:34;;;;;;;12.23;2.67;;;;;;;;;;5034888;28;20413;-76
2022/02/03 07:44:01;;;;;;;10.32;2.20;;;;;;;;;;5034629;28;20029;-76
2022/02/03 07:46:31;;;;;;;9.63;2.13;;;;;;;;;;5034623;28;20021;-76
2022/02/03 07:48:59;;;;;;;14.02;2.40;;;;;;;;;;5034686;28;20025;-76
2022/02/03 07:51:26;;;;;;;9.63;2.40;;;;;;;;;;5033006;28;20033;-75
2022/02/03 07:53:54;;;;;;;10.55;2.30;;;;;;;;;;5034167;28;20026;-75
2022/02/03 07:56:21;;;;;;;10.18;2.22;;;;;;;;;;5034302;28;20029;-75
2022/02/03 07:58:48;;;;;;;9.82;1.95;;;;;;;;;;5032818;28;20029;-76
2022/02/03 08:01:20;;;;;;;10.85;2.70;;;;;;;;;;5034269;28;20479;-77
2022/02/03 08:03:48;;;;;;;14.13;2.17;;;;;;;;;;5034233;28;20022;-76
2022/02/03 08:06:22;;;;;;;11.75;2.30;;;;;;;;;;5070901;28;20511;-76
2022/02/03 08:09:04;;;;;;;14.00;3.45;;;;;;;;;;5074042;28;20025;-75
2022/02/03 08:11:40;;;;;;;9.95;2.40;;;;;;;;;;5072577;28;20389;-78
2022/02/03 08:14:15;;;;;;;12.40;2.42;;;;;;;;;;5074480;28;20040;-77
2022/02/03 08:16:57;;;;;;;13.88;3.13;;;;;;;;;;5074079;28;20020;-76
2022/02/03 08:19:30;;;;;;;15.93;3.00;;;;;;;;;;5073902;28;20017;-76
2022/02/03 08:22:03;;;;;;;16.10;3.35;;;;;;;;;;5072544;28;20025;-77
2022/02/03 08:24:45;;;;;;;14.98;2.92;;;;;;;;;;5072370;28;20082;-77
2022/02/03 08:27:38;;;;;;;18.67;3.90;;;;;;;;;;5072468;28;20021;-77
2022/02/03 08:32:49;;;;;;;16.63;3.38;;;;;;;;;;5074133;28;20055;-76
2022/02/03 08:35:37;;;;;;;13.60;3.17;;;;;;;;;;5072408;28;20025;-75
2022/02/03 08:43:19;;;;;;;15.15;2.95;;;;;;;;;;5073830;28;20024;-75
2022/02/03 08:45:46;;;;;;;11.05;2.80;;;;;;;;;;5072265;28;20032;-75
2022/02/03 08:48:14;;;;;;;15.02;2.90;;;;;;;;;;5073480;28;20106;-74
2022/02/03 08:50:42;;;;;;;14.27;2.60;;;;;;;;;;5073408;28;20558;-73
2022/02/03 08:53:17;;;;;;;18.17;2.67;;;;;;;;;;5073460;28;20362;-76
2022/02/03 09:39:00;;;;;;;12.57;3.80;;;;;;;;;;5073207;28;20063;-75
2022/02/03 09:42:00;;;;;;;12.13;2.28;;;;;;;;;;5072134;28;20029;-74
2022/02/03 09:53:18;;;;;;;13.00;2.50;;;;;;;;;;5055047;28;20029;-74
2022/02/03 09:56:10;;;;;;;10.85;2.28;;;;;;;;;;5071204;28;20021;-76
2022/02/03 09:58:53;;;;;;;12.45;2.40;;;;;;;;;;5077143;28;20435;-74
2022/02/03 10:01:34;;;;;;;9.23;2.30;;;;;;;;;;5075580;28;20027;-74
2022/02/03 10:04:10;;;;;;;12.43;3.13;;;;;;;;;;5075340;28;20025;-74
2022/02/03 10:06:50;;;;;;;10.90;1.55;;;;;;;;;;5075320;28;20029;-74
2022/02/03 10:09:35;;;;;;;12.77;2.97;;;;;;;;;;5075421;28;20048;-74
2022/02/03 10:12:02;;;;;;;7.65;2.42;;;;;;;;;;5076555;28;20051;-75
2022/02/03 10:14:37;;;;;;;12.15;2.22;;;;;;;;;;5076432;28;20074;-74
2022/02/03 10:17:05;;;;;;;12.20;2.28;;;;;;;;;;5076438;28;20485;-75
2022/02/03 10:19:38;;;;;;;10.75;2.35;;;;;;;;;;5076279;28;20016;-73
2022/02/03 10:22:23;;;;;;;12.27;2.35;;;;;;;;;;5075079;28;20027;-73
2022/02/03 10:24:52;;;;;;;10.38;2.03;;;;;;;;;;5075141;28;20044;-74
2022/02/03 10:27:24;;;;;;;11.70;2.60;;;;;;;;;;5076011;28;20028;-74
2022/02/03 10:30:06;;;;;;;10.90;2.58;;;;;;;;;;5076181;28;20023;-74
2022/02/03 10:32:44;;;;;;;13.27;2.30;;;;;;;;;;5076085;28;20021;-74
2022/02/03 10:35:36;;;;;;;10.20;2.35;;;;;;;;;;5076148;28;20381;-74
2022/02/03 10:51:45;;;;;;;10.87;2.63;;;;;;;;;;5075871;28;20367;-73
2022/02/03 10:54:22;;;;;;;10.70;2.50;;;;;;;;;;5075515;28;20650;-73
2022/02/03 11:07:55;;;;;;;;;;;;;;;;;;;;;
2022/02/03 11:13:03;;;;;;;15.10;3.13;;;;;;;;;;5075637;28;20398;-75
2022/02/03 11:15:31;;;;;;;12.23;2.53;;;;;;;;;;5075458;28;20020;-75
2022/02/03 11:17:59;;;;;;;12.80;2.95;;;;;;;;;;5075260;28;20029;-75
2022/02/03 11:20:28;;;;;;;14.18;3.28;;;;;;;;;;5075215;28;20424;-75
2022/02/03 11:23:09;;;;;;;12.20;2.33;;;;;;;;;;5073877;28;20500;-75
2022/02/03 11:31:10;;;;;;;16.85;3.53;;;;;;;;;;5074015;28;20390;-75
2022/02/03 11:41:40;;;;;;;16.63;2.78;;;;;;;;;;5074958;28;20020;-75
2022/02/03 11:57:58;;;;;;;15.20;2.80;;;;;;;;;;5074466;28;20082;-74
2022/02/03 12:01:33;;;;;;;11.27;2.38;;;;;;;;;;5074460;28;20027;-74
2022/02/03 12:04:06;;;;;;;12.43;2.30;;;;;;;;;;5070158;28;20036;-73
2022/02/03 12:07:11;;;;;;;16.07;2.90;;;;;;;;;;5074155;28;20528;-74
2022/02/03 12:12:47;;;;;;;14.05;2.55;;;;;;;;;;5074187;28;20029;-74
2022/02/03 12:18:31;;;;;;;12.68;2.40;;;;;;;;;;5074302;28;20043;-75
2022/02/03 12:21:10;;;;;;;13.05;2.10;;;;;;;;;;5072739;28;20025;-74
2022/02/03 12:26:30;;;;;;;11.05;2.83;;;;;;;;;;5074319;28;20033;-74
2022/02/03 12:29:11;;;;;;;11.75;2.40;;;;;;;;;;5074146;28;20043;-74
2022/02/03 12:31:54;;;;;;;;;;;;;;;;;;5073115;28;20045;-74
2022/02/03 12:37:15;;;;;;;14.43;2.60;;;;;;;;;;5074246;28;20082;-74
2022/02/03 12:40:24;;;;;;;12.27;2.22;;;;;;;;;;5072485;28;20017;-74
2022/02/03 12:45:28;;;;;;;11.48;1.80;;;;;;;;;;5073692;28;20033;-74
2022/02/03 12:47:57;;;;;;;10.63;2.03;;;;;;;;;;5073502;28;20135;-73
2022/02/03 12:50:26;;;;;;;11.05;2.15;;;;;;;;;;5073522;28;20043;-73
2022/02/03 12:52:53;;;;;;;14.07;2.92;;;;;;;;;;5073463;28;20385;-73
2022/02/03 12:55:26;;;;;;;10.93;2.60;;;;;;;;;;5073440;28;20020;-73
2022/02/03 12:57:54;;;;;;;12.95;2.45;;;;;;;;;;5073327;28;20025;-74
2022/02/03 13:00:34;;;;;;;18.70;3.65;;;;;;;;;;5073263;28;20077;-73
2022/02/03 13:03:04;;;;;;;10.57;2.80;;;;;;;;;;5073325;28;20423;-74
2022/02/03 13:05:34;;;;;;;12.15;2.60;;;;;;;;;;5072992;28;20326;-73
2022/02/03 13:08:04;;;;;;;16.15;3.10;;;;;;;;;;5073188;28;20086;-73
2022/02/03 13:10:34;;;;;;;16.13;2.85;;;;;;;;;;5073175;28;20162;-74
2022/02/03 13:13:12;;;;;;;13.65;2.85;;;;;;;;;;5073508;28;20013;-74
2022/02/03 13:15:42;;;;;;;17.10;2.67;;;;;;;;;;5073230;28;20019;-74
2022/02/03 13:18:33;;;;;;;14.23;2.97;;;;;;;;;;5073160;28;20024;-74
2022/02/03 13:21:17;;;;;;;14.13;2.42;;;;;;;;;;5072720;28;20037;-74
2022/02/03 13:23:50;;;;;;;14.65;2.13;;;;;;;;;;5072746;28;20025;-75
2022/02/03 13:26:24;;;;;;;12.85;2.60;;;;;;;;;;5073044;28;20016;-75
2022/02/03 13:29:07;;;;;;;11.40;2.60;;;;;;;;;;5072877;28;20540;-74
2022/02/03 13:31:54;;;;;;;14.32;3.00;;;;;;;;;;5073005;28;20027;-74
2022/02/03 13:34:40;;;;;;;14.23;2.65;;;;;;;;;;5072847;28;20016;-74
2022/02/03 13:37:23;;;;;;;14.90;2.72;;;;;;;;;;5071550;28;20113;-74
2022/02/03 13:40:03;;;;;;;12.52;2.33;;;;;;;;;;5072843;28;20434;-75
2022/02/03 13:42:33;;;;;;;12.20;3.15;;;;;;;;;;5072877;28;20096;-74
2022/02/03 13:45:07;;;;;;;10.60;2.40;;;;;;;;;;5071342;28;20052;-75
2022/02/03 13:47:35;;;;;;;13.75;2.38;;;;;;;;;;5072693;28;20442;-75
2022/02/03 13:50:17;;;;;;;11.48;2.08;;;;;;;;;;5072669;28;20020;-74
2022/02/03 13:52:56;;;;;;;14.15;2.33;;;;;;;;;;5072797;28;20017;-74
2022/02/03 14:22:14;;;;;;;9.00;2.35;;;;;;;;;;5072536;28;20054;-74
2022/02/03 14:27:29;;;;;;;12.38;2.10;;;;;;;;;;5072271;28;20067;-74
2022/02/03 14:30:04;;;;;;;9.18;1.85;;;;;;;;;;5072763;28;20012;-74
2022/02/03 14:32:37;;;;;;;10.85;2.28;;;;;;;;;;5072426;28;20016;-73
2022/02/03 14:35:06;;;;;;;11.13;2.80;;;;;;;;;;5074811;28;20074;-73
2022/02/03 14:38:02;;;;;;;11.43;2.35;;;;;;;;;;5075992;28;20024;-73
2022/02/03 14:41:11;;;;;;;12.52;2.13;;;;;;;;;;5075488;28;20500;-73
2022/02/03 14:43:08;;;;;;;15.70;2.60;;;;;;;;;;5071690;28;20035;-73
2022/02/03 14:45:35;;;;;;;10.65;2.00;;;;;;;;;;5075905;28;20095;-74
2022/02/03 14:48:03;;;;;;;11.30;1.77;;;;;;;;;;5075809;28;20028;-74
2022/02/03 14:50:30;;;;;;;10.55;2.15;;;;;;;;;;5075846;28;20024;-73
2022/02/03 14:53:00;;;;;;;11.88;2.20;;;;;;;;;;5075699;28;20389;-73
2022/02/03 14:58:20;;;;;;;10.30;1.88;;;;;;;;;;5075937;28;20389;-73
2022/02/03 15:00:49;;;;;;;11.80;2.55;;;;;;;;;;5075632;28;20028;-73
2022/02/03 15:03:17;;;;;;;10.98;2.15;;;;;;;;;;5075595;28;20111;-73
2022/02/03 15:05:44;;;;;;;14.23;2.50;;;;;;;;;;5075403;28;20048;-73
2022/02/03 15:08:32;;;;;;;11.15;1.83;;;;;;;;;;5075498;28;20477;-74
2022/02/03 15:11:10;;;;;;;9.82;2.33;;;;;;;;;;5074229;28;20104;-74
2022/02/03 15:13:46;;;;;;;8.23;1.77;;;;;;;;;;5075490;28;20016;-74
2022/02/03 15:16:14;;;;;;;8.48;1.60;;;;;;;;;;5075410;28;20024;-74
2022/02/03 15:18:42;;;;;;;9.20;1.70;;;;;;;;;;5075307;28;20028;-73
2022/02/03 15:21:12;;;;;;;9.73;1.70;;;;;;;;;;5075400;28;20100;-73
2022/02/03 15:23:40;;;;;;;12.65;3.08;;;;;;;;;;5075203;28;20029;-73
2022/02/03 15:26:09;;;;;;;11.05;2.10;;;;;;;;;;5075419;28;20078;-74
2022/02/03 15:28:36;;;;;;;12.52;2.10;;;;;;;;;;5075087;28;20048;-74
2022/02/03 15:31:04;;;;;;;8.77;2.00;;;;;;;;;;5075212;28;20543;-74
2022/02/03 15:33:31;;;;;;;8.88;1.75;;;;;;;;;;5075023;28;20016;-73
2022/02/03 15:36:03;;;;;;;9.77;2.05;;;;;;;;;;5074975;28;20393;-74
2022/02/03 15:38:36;;;;;;;12.98;2.35;;;;;;;;;;5073628;28;20044;-74
2022/02/03 15:41:06;;;;;;;8.63;2.25;;;;;;;;;;5074926;28;20043;-74
2022/02/03 15:43:41;;;;;;;10.55;1.85;;;;;;;;;;5074947;28;20024;-74
2022/02/03 15:46:12;;;;;;;10.80;2.08;;;;;;;;;;5073908;28;20021;-74
2022/02/03 15:48:50;;;;;;;9.05;1.73;;;;;;;;;;5073359;28;20036;-74
2022/02/03 16:18:33;;;;;;;8.35;1.90;;;;;;;;;;5074201;28;20035;-74
2022/02/03 16:21:15;;;;;;;10.80;1.80;;;;;;;;;;5074045;28;20024;-74
2022/02/03 16:53:42;;;;;;;11.35;2.20;;;;;;;;;;5054044;28;20392;-76
2022/02/03 16:56:11;;;;;;;15.27;2.55;;;;;;;;;;5073424;28;20028;-75
2022/02/03 16:58:41;;;;;;;12.65;2.40;;;;;;;;;;5073522;28;20031;-75
2022/02/03 17:01:08;;;;;;;12.30;2.08;;;;;;;;;;5073425;28;20029;-76
2022/02/03 17:03:35;;;;;;;15.45;2.15;;;;;;;;;;5073379;28;20020;-75
2022/02/03 17:06:04;;;;;;;10.93;2.03;;;;;;;;;;5073144;28;20044;-76
2022/02/03 17:08:31;;;;;;;15.07;2.20;;;;;;;;;;5073280;28;20052;-76
2022/02/03 17:10:59;;;;;;;17.13;2.60;;;;;;;;;;5073291;28;20122;-76
2022/02/03 17:13:26;;;;;;;15.57;3.03;;;;;;;;;;5073260;28;20028;-76
2022/02/03 17:15:53;;;;;;;11.50;2.20;;;;;;;;;;5073247;28;20385;-75
2022/02/03 17:18:20;;;;;;;12.57;2.47;;;;;;;;;;5073246;28;20045;-76
2022/02/03 17:20:47;;;;;;;16.98;2.63;;;;;;;;;;5073114;28;20107;-75
2022/02/03 17:23:18;;;;;;;15.20;2.25;;;;;;;;;;5073152;28;20099;-76
2022/02/03 17:25:56;;;;;;;16.05;2.65;;;;;;;;;;5071839;28;20509;-75
2022/02/03 17:28:40;;;;;;;15.52;2.65;;;;;;;;;;5073053;28;20016;-75
2022/02/03 17:31:25;;;;;;;14.80;2.22;;;;;;;;;;5071772;28;20101;-75
2022/02/03 17:45:40;;;;;;;17.05;1.92;;;;;;;;;;5072933;28;20530;-75
2022/02/03 18:04:45;;;;;;;7.57;1.63;;;;;;;;;;5072677;28;20453;-76
2022/02/03 18:31:09;;;;;;;8.80;1.67;;;;;;;;;;5076300;28;20031;-75
2022/02/03 18:48:17;;;;;;;6.97;1.10;;;;;;;;;;5075986;28;20039;-75
2022/02/03 18:50:24;;;;;;;5.40;1.00;;;;;;;;;;5075709;28;20047;-74
2022/02/03 18:53:17;;;;;;;5.57;0.98;;;;;;;;;;5075904;28;20016;-75
2022/02/03 18:58:47;;;;;;;8.00;1.23;;;;;;;;;;5073702;28;20039;-76
2022/02/03 19:01:22;;;;;;;4.45;1.25;;;;;;;;;;5075664;28;20025;-76
2022/02/03 19:15:19;;;;;;;7.85;1.13;;;;;;;;;;5075200;28;20016;-75
2022/02/03 19:23:36;;;;;;;5.65;1.23;;;;;;;;;;5075419;28;20075;-75
2022/02/03 20:06:43;;;;;;;6.35;1.17;;;;;;;;;;5074321;28;20509;-75
2022/02/03 20:11:45;;;;;;;4.20;1.10;;;;;;;;;;5074386;28;20497;-76
2022/02/03 20:14:13;;;;;;;4.68;1.00;;;;;;;;;;5072801;28;20028;-76
2022/02/03 20:16:44;;;;;;;7.00;1.23;;;;;;;;;;5074121;28;20051;-75
2022/02/03 20:19:10;;;;;;;;;;;;;;;;;;5074360;28;20100;-77
2022/02/03 20:21:39;;;;;;;5.80;1.17;;;;;;;;;;5074181;28;19905;-76
2022/02/03 20:24:07;;;;;;;5.72;1.48;;;;;;;;;;5072630;28;20036;-76
2022/02/03 20:26:35;;;;;;;3.72;1.30;;;;;;;;;;5074073;28;20047;-76
2022/02/03 20:29:03;;;;;;;6.47;1.15;;;;;;;;;;5072416;28;20028;-76
2022/02/03 20:31:31;;;;;;;9.95;2.22;;;;;;;;;;5073453;28;20029;-76
2022/02/03 20:33:58;;;;;;;11.00;1.52;;;;;;;;;;5073695;28;20029;-76
2022/02/03 20:36:25;;;;;;;5.78;1.40;;;;;;;;;;5072509;28;20101;-76
2022/02/03 20:38:52;;;;;;;10.55;1.73;;;;;;;;;;5073655;28;20103;-74
2022/02/03 20:41:20;;;;;;;10.27;2.33;;;;;;;;;;5073645;28;20028;-74
2022/02/03 20:43:47;;;;;;;10.88;2.05;;;;;;;;;;5072280;28;20396;-75
2022/02/03 20:46:15;;;;;;;13.77;2.28;;;;;;;;;;5073621;28;20392;-74
2022/02/03 20:48:46;;;;;;;9.93;1.70;;;;;;;;;;5071975;28;20025;-75
2022/02/03 20:51:12;;;;;;;;;;;;;;;;;;5072629;28;20021;-75
2022/02/03 20:53:40;;;;;;;10.13;1.73;;;;;;;;;;5071875;28;19911;-75
2022/02/03 20:56:07;;;;;;;9.88;1.83;;;;;;;;;;5073391;28;20020;-75
2022/02/03 20:58:34;;;;;;;12.25;2.13;;;;;;;;;;5072240;28;20028;-75
2022/02/03 21:01:11;;;;;;;12.73;3.13;;;;;;;;;;5073442;28;20508;-75
2022/02/03 21:03:42;;;;;;;10.68;1.98;;;;;;;;;;5073092;28;20032;-75
2022/02/03 21:06:10;;;;;;;;;;;;;;;;;;5073475;28;20108;-74
2022/02/03 21:08:42;;;;;;;10.05;1.88;;;;;;;;;;5071834;28;19920;-74
2022/02/03 21:11:09;;;;;;;10.85;2.03;;;;;;;;;;5073107;28;20032;-74
2022/02/03 21:13:37;;;;;;;11.10;2.00;;;;;;;;;;5073163;28;20393;-74
2022/02/03 21:16:06;;;;;;;8.90;2.22;;;;;;;;;;5073054;28;20024;-75
2022/02/03 21:18:39;;;;;;;13.27;2.63;;;;;;;;;;5073077;28;20023;-76
2022/02/03 21:21:07;;;;;;;16.48;2.80;;;;;;;;;;5071678;28;20120;-75
2022/02/03 21:23:34;;;;;;;13.65;3.00;;;;;;;;;;5073114;28;20025;-75
2022/02/03 21:26:05;;;;;;;14.02;2.38;;;;;;;;;;5072982;28;20032;-74
2022/02/03 21:28:36;;;;;;;14.75;2.63;;;;;;;;;;5072833;28;20025;-76
2022/02/03 21:31:04;;;;;;;11.52;2.50;;;;;;;;;;5071469;28;20020;-74
2022/02/03 21:33:35;;;;;;;12.57;2.45;;;;;;;;;;5073052;28;20059;-75
2022/02/03 21:36:10;;;;;;;14.77;2.40;;;;;;;;;;5073127;28;20027;-75
2022/02/03 21:38:39;;;;;;;11.50;2.78;;;;;;;;;;5072918;28;20132;-75
2022/02/03 21:41:07;;;;;;;11.30;2.20;;;;;;;;;;5072818;28;20392;-76
2022/02/03 21:43:34;;;;;;;13.68;2.47;;;;;;;;;;5072046;28;20492;-75
2022/02/03 21:46:01;;;;;;;10.98;2.60;;;;;;;;;;5071468;28;20397;-75
2022/02/03 21:48:51;;;;;;;10.63;2.65;;;;;;;;;;5072673;28;20440;-75
2022/02/03 21:51:22;;;;;;;11.93;2.70;;;;;;;;;;5073056;28;20100;-74
2022/02/03 21:53:49;;;;;;;11.48;2.63;;;;;;;;;;5072674;28;20021;-74
2022/02/03 21:56:18;;;;;;;11.32;2.50;;;;;;;;;;5072627;28;20103;-76
2022/02/03 21:58:45;;;;;;;13.18;2.20;;;;;;;;;;5072680;28;20021;-75
2022/02/03 22:01:13;;;;;;;11.82;2.22;;;;;;;;;;5072532;28;20033;-74
2022/02/03 22:03:40;;;;;;;11.23;3.10;;;;;;;;;;5072538;28;20521;-74
2022/02/03 22:06:07;;;;;;;10.40;2.40;;;;;;;;;;5072530;28;20040;-75
2022/02/03 22:08:34;;;;;;;10.27;2.58;;;;;;;;;;5071377;28;20447;-76
2022/02/03 22:11:02;;;;;;;6.45;1.80;;;;;;;;;;5072567;28;20028;-75
2022/02/03 22:13:35;;;;;;;7.68;1.80;;;;;;;;;;5072665;28;20021;-74
2022/02/03 22:16:08;;;;;;;8.82;2.40;;;;;;;;;;5072344;28;20092;-76
2022/02/03 22:18:35;;;;;;;7.25;2.40;;;;;;;;;;5072550;28;20108;-75
2022/02/03 22:21:46;;;;;;;10.40;2.30;;;;;;;;;;5071208;28;20150;-74
2022/02/03 22:24:12;;;;;;;10.55;2.25;;;;;;;;;;5070104;28;20109;-74
2022/02/03 22:26:59;;;;;;;11.50;1.63;;;;;;;;;;5072513;28;20455;-75
2022/02/03 22:43:05;;;;;;;7.63;1.65;;;;;;;;;;5072573;28;20367;-76
2022/02/03 22:46:08;;;;;;;7.07;1.05;;;;;;;;;;5072555;28;20527;-75
2022/02/03 22:48:26;;;;;;;11.63;2.20;;;;;;;;;;5071080;28;20052;-75
2022/02/03 22:50:54;;;;;;;8.60;1.83;;;;;;;;;;5072331;28;20104;-75
2022/02/03 22:53:22;;;;;;;6.25;1.80;;;;;;;;;;5072358;28;20027;-77
2022/02/03 22:55:50;;;;;;;8.05;1.67;;;;;;;;;;5075659;28;20067;-75
2022/02/03 23:01:01;;;;;;;5.97;1.17;;;;;;;;;;5076064;28;20028;-76
2022/02/03 23:03:31;;;;;;;11.55;2.72;;;;;;;;;;5075614;28;20035;-76
2022/02/03 23:05:58;;;;;;;8.60;1.65;;;;;;;;;;5074438;28;20048;-76
2022/02/03 23:08:40;;;;;;;7.30;1.50;;;;;;;;;;5075661;28;20033;-75
2022/02/03 23:14:08;;;;;;;4.28;1.30;;;;;;;;;;5075771;28;20021;-76
2022/02/03 23:16:43;;;;;;;7.25;1.70;;;;;;;;;;5076099;28;20017;-76
2022/02/03 23:21:51;;;;;;;7.70;1.30;;;;;;;;;;5075435;28;20028;-76
2022/02/03 23:24:20;;;;;;;7.15;1.00;;;;;;;;;;5075947;28;20027;-75
2022/02/03 23:26:54;;;;;;;7.80;1.05;;;;;;;;;;5075562;28;20033;-76
2022/02/03 23:29:22;;;;;;;7.55;1.63;;;;;;;;;;5076152;28;20485;-75
2022/02/03 23:32:07;;;;;;;6.50;1.52;;;;;;;;;;5075682;28;20017;-75
2022/02/03 23:34:35;;;;;;;5.65;1.15;;;;;;;;;;5076417;28;20016;-76
2022/02/03 23:37:04;;;;;;;8.40;1.40;;;;;;;;;;5076345;28;20080;-77
2022/02/03 23:44:56;;;;;;;7.07;1.02;;;;;;;;;;5076129;28;20033;-75
2022/02/03 23:48:16;;;;;;;5.30;1.63;;;;;;;;;;5074012;28;20160;-75
